createdAt,value
2023-03-16T00:00:05.083Z,0.20
2023-03-16T00:02:32.152Z,0.30
2023-03-16T00:04:59.199Z,0.52
2023-03-16T00:07:26.469Z,0.20
2023-03-16T00:09:54.799Z,0.40
2023-03-16T00:12:22.848Z,0.30
2023-03-16T00:14:50.524Z,0.45
2023-03-16T00:17:20.308Z,0.30
2023-03-16T00:19:55.749Z,0.20
2023-03-16T00:22:25.956Z,0.30
2023-03-16T00:24:53.979Z,0.22
2023-03-16T00:27:23.076Z,0.20
2023-03-16T00:29:55.910Z,0.30
2023-03-16T00:32:29.844Z,0.10
2023-03-16T00:34:57.661Z,0.20
2023-03-16T00:37:26.775Z,0.30
2023-03-16T00:39:56.473Z,0.30
2023-03-16T00:42:27.672Z,0.30
2023-03-16T00:44:57.773Z,0.10
2023-03-16T00:47:28.559Z,0.30
2023-03-16T00:49:56.054Z,0.45
2023-03-16T00:52:23.798Z,0.10
2023-03-16T00:54:54.364Z,0.20
2023-03-16T00:57:24.809Z,0.20
2023-03-16T01:02:23.689Z,0.20
2023-03-16T01:04:54.790Z,0.30
2023-03-16T01:07:22.293Z,0.25
2023-03-16T01:09:49.799Z,0.30
2023-03-16T01:12:19.296Z,0.45
2023-03-16T01:14:47.021Z,0.20
2023-03-16T01:17:15.287Z,0.22
2023-03-16T01:19:42.992Z,0.30
2023-03-16T01:22:11.794Z,0.30
2023-03-16T01:24:40.177Z,0.28
2023-03-16T01:27:08.193Z,0.20
2023-03-16T01:29:35.959Z,0.20
2023-03-16T01:32:04.442Z,0.15
2023-03-16T01:34:32.470Z,0.20
2023-03-16T01:37:01.054Z,0.10
2023-03-16T01:39:28.478Z,0.15
2023-03-16T01:41:55.621Z,0.17
2023-03-16T01:44:30.697Z,0.15
2023-03-16T01:46:58.038Z,0.20
2023-03-16T01:49:32.950Z,0.38
2023-03-16T01:52:10.356Z,0.20
2023-03-16T01:54:48.517Z,0.20
2023-03-16T01:57:22.224Z,0.20
2023-03-16T01:59:56.571Z,0.30
2023-03-16T02:02:26.922Z,0.20
2023-03-16T02:05:12.712Z,0.22
2023-03-16T02:07:51.599Z,0.20
2023-03-16T02:10:20.599Z,0.10
2023-03-16T02:12:47.880Z,0.30
2023-03-16T02:15:15.613Z,0.25
2023-03-16T02:17:44.980Z,0.22
2023-03-16T02:20:43.098Z,0.30
2023-03-16T02:23:18.782Z,0.10
2023-03-16T02:26:15.645Z,0.20
2023-03-16T02:29:11.664Z,0.10
2023-03-16T02:31:39.376Z,0.20
2023-03-16T02:34:07.099Z,0.22
2023-03-16T02:36:36.811Z,0.20
2023-03-16T02:39:06.017Z,0.20
2023-03-16T02:41:33.326Z,0.40
2023-03-16T02:44:11.044Z,0.17
2023-03-16T02:46:38.893Z,0.20
2023-03-16T02:49:28.647Z,0.63
2023-03-16T02:51:57.654Z,0.30
2023-03-16T02:54:25.085Z,0.32
2023-03-16T02:56:52.313Z,0.20
2023-03-16T02:59:19.363Z,0.30
2023-03-16T03:01:46.499Z,0.30
2023-03-16T03:04:13.893Z,0.10
2023-03-16T03:06:41.886Z,0.38
2023-03-16T03:09:11.788Z,0.28
2023-03-16T03:11:39.333Z,0.20
2023-03-16T03:14:06.598Z,0.30
2023-03-16T03:16:33.711Z,0.10
2023-03-16T03:19:00.868Z,0.20
2023-03-16T03:21:28.533Z,0.20
2023-03-16T03:23:55.896Z,0.20
2023-03-16T03:26:24.720Z,0.20
2023-03-16T03:28:52.726Z,0.22
2023-03-16T03:31:23.241Z,0.30
2023-03-16T03:36:17.461Z,0.20
2023-03-16T03:38:44.557Z,0.45
2023-03-16T03:41:11.898Z,0.13
2023-03-16T03:43:38.952Z,0.40
2023-03-16T03:46:06.328Z,0.10
2023-03-16T03:48:33.988Z,0.22
2023-03-16T03:51:01.262Z,0.20
2023-03-16T03:53:28.314Z,0.20
2023-03-16T03:55:55.612Z,0.20
2023-03-16T03:58:22.631Z,0.28
2023-03-16T04:00:49.739Z,0.10
2023-03-16T04:03:17.878Z,0.22
2023-03-16T04:05:45.063Z,0.28
2023-03-16T04:08:12.164Z,0.20
2023-03-16T04:10:39.466Z,0.10
2023-03-16T04:13:06.611Z,0.25
2023-03-16T04:15:33.896Z,0.40
2023-03-16T04:18:02.011Z,0.43
2023-03-16T04:20:29.987Z,0.20
2023-03-16T04:22:58.843Z,0.20
2023-03-16T04:25:27.304Z,0.20
2023-03-16T04:27:54.532Z,0.20
2023-03-16T04:30:23.532Z,0.20
2023-03-16T04:32:52.435Z,0.30
2023-03-16T04:35:20.069Z,0.20
2023-03-16T04:37:47.181Z,0.30
2023-03-16T04:40:17.657Z,0.10
2023-03-16T04:45:13.194Z,0.35
2023-03-16T04:47:40.930Z,0.13
2023-03-16T04:50:10.686Z,0.03
2023-03-16T04:52:38.204Z,0.20
2023-03-16T04:55:06.214Z,0.20
2023-03-16T04:57:33.608Z,0.10
2023-03-16T05:00:01.032Z,0.20
2023-03-16T05:02:28.459Z,0.32
2023-03-16T05:04:55.574Z,0.28
2023-03-16T05:07:22.681Z,0.10
2023-03-16T05:09:49.806Z,0.30
2023-03-16T05:12:16.883Z,0.15
2023-03-16T05:14:43.963Z,0.13
2023-03-16T05:17:14.861Z,0.10
2023-03-16T05:19:42.483Z,0.10
2023-03-16T05:22:10.194Z,0.20
2023-03-16T05:24:37.383Z,0.30
2023-03-16T05:27:04.589Z,0.25
2023-03-16T05:29:31.691Z,0.10
2023-03-16T05:31:59.730Z,0.10
2023-03-16T05:34:27.559Z,0.40
2023-03-16T05:36:54.664Z,0.40
2023-03-16T05:39:22.341Z,0.68
2023-03-16T05:41:49.686Z,0.40
2023-03-16T05:44:16.803Z,0.30
2023-03-16T05:46:45.952Z,0.40
2023-03-16T05:49:13.403Z,0.60
2023-03-16T05:51:40.461Z,0.45
2023-03-16T05:54:07.666Z,0.47
2023-03-16T05:56:35.018Z,0.63
2023-03-16T05:59:02.886Z,0.55
2023-03-16T06:01:30.117Z,0.70
2023-03-16T06:03:57.208Z,0.52
2023-03-16T06:06:24.309Z,0.70
2023-03-16T06:08:51.805Z,0.55
2023-03-16T06:11:19.015Z,0.63
2023-03-16T06:13:46.138Z,0.55
2023-03-16T06:16:14.567Z,0.63
2023-03-16T06:18:41.705Z,0.80
2023-03-16T06:21:09.567Z,0.70
2023-03-16T06:23:36.643Z,0.85
2023-03-16T06:26:03.844Z,0.60
2023-03-16T06:28:31.266Z,0.80
2023-03-16T06:30:58.832Z,0.80
2023-03-16T06:33:26.563Z,0.50
2023-03-16T06:35:53.844Z,1.17
2023-03-16T06:38:21.099Z,1.30
2023-03-16T06:40:53.042Z,0.85
2023-03-16T06:43:20.373Z,1.30
2023-03-16T06:45:47.730Z,0.90
2023-03-16T06:48:15.019Z,1.02
2023-03-16T06:50:42.277Z,1.08
2023-03-16T06:53:09.361Z,1.27
2023-03-16T06:55:37.604Z,1.30
2023-03-16T06:58:04.825Z,1.00
2023-03-16T07:00:34.233Z,1.20
2023-03-16T07:03:02.206Z,1.40
2023-03-16T07:05:29.553Z,1.08
2023-03-16T07:07:57.367Z,1.05
2023-03-16T07:10:26.734Z,1.02
2023-03-16T07:12:55.458Z,1.27
2023-03-16T07:15:22.624Z,1.45
2023-03-16T07:17:50.203Z,1.20
2023-03-16T07:20:17.755Z,1.33
2023-03-16T07:22:46.756Z,1.58
2023-03-16T07:25:14.557Z,1.17
2023-03-16T07:27:43.831Z,1.08
2023-03-16T07:30:14.506Z,1.20
2023-03-16T07:32:42.856Z,1.67
2023-03-16T07:35:11.879Z,0.95
2023-03-16T07:37:39.056Z,1.15
2023-03-16T07:40:09.493Z,1.30
2023-03-16T07:42:37.442Z,1.20
2023-03-16T07:45:05.686Z,1.13
2023-03-16T07:47:33.853Z,1.35
2023-03-16T07:50:01.597Z,1.50
2023-03-16T07:52:29.495Z,1.88
2023-03-16T07:54:56.658Z,1.95
2023-03-16T07:57:24.122Z,1.58
2023-03-16T07:59:52.386Z,1.83
2023-03-16T08:02:21.842Z,1.55
2023-03-16T08:04:49.911Z,1.92
2023-03-16T08:07:17.357Z,1.88
2023-03-16T08:09:44.499Z,1.65
2023-03-16T08:12:12.080Z,1.77
2023-03-16T08:14:39.262Z,1.73
2023-03-16T08:17:10.335Z,2.17
2023-03-16T08:19:37.443Z,2.00
2023-03-16T08:22:05.796Z,2.03
2023-03-16T08:24:33.497Z,2.55
2023-03-16T08:27:02.549Z,1.67
2023-03-16T08:29:29.601Z,1.83
2023-03-16T08:31:57.769Z,1.88
2023-03-16T08:34:26.142Z,2.15
2023-03-16T08:36:54.133Z,1.55
2023-03-16T08:39:21.898Z,1.65
2023-03-16T08:41:49.241Z,1.58
2023-03-16T08:44:16.770Z,1.65
2023-03-16T08:46:45.010Z,1.67
2023-03-16T08:49:13.821Z,1.67
2023-03-16T08:51:44.518Z,1.60
2023-03-16T08:54:12.423Z,1.92
2023-03-16T08:56:39.550Z,1.77
2023-03-16T08:59:07.812Z,1.65
2023-03-16T09:01:36.320Z,1.63
2023-03-16T09:04:04.000Z,1.85
2023-03-16T09:06:31.830Z,1.48
2023-03-16T09:08:59.030Z,1.85
2023-03-16T09:11:30.677Z,1.80
2023-03-16T09:13:58.546Z,1.70
2023-03-16T09:16:25.997Z,2.05
2023-03-16T09:18:54.260Z,1.50
2023-03-16T09:21:21.814Z,1.85
2023-03-16T09:23:49.212Z,1.63
2023-03-16T09:26:17.425Z,1.55
2023-03-16T09:28:44.649Z,1.65
2023-03-16T09:31:18.804Z,1.77
2023-03-16T09:33:46.681Z,1.52
2023-03-16T09:36:14.407Z,2.03
2023-03-16T09:38:42.585Z,1.77
2023-03-16T09:41:21.057Z,1.48
2023-03-16T09:44:20.998Z,1.70
2023-03-16T09:46:50.987Z,1.67
2023-03-16T09:49:21.261Z,1.55
2023-03-16T09:54:39.425Z,1.67
2023-03-16T09:57:26.754Z,1.98
2023-03-16T09:59:55.164Z,1.67
2023-03-16T10:02:54.198Z,1.60
2023-03-16T10:05:23.730Z,1.48
2023-03-16T10:08:21.295Z,2.08
2023-03-16T10:11:21.215Z,1.60
2023-03-16T10:14:27.659Z,1.60
2023-03-16T10:17:05.602Z,1.55
2023-03-16T10:19:54.681Z,1.65
2023-03-16T10:22:26.624Z,2.10
2023-03-16T10:25:14.969Z,1.50
2023-03-16T10:27:45.279Z,1.50
2023-03-16T10:30:24.858Z,1.70
2023-03-16T10:32:52.587Z,1.55
2023-03-16T10:35:44.120Z,1.60
2023-03-16T10:38:38.807Z,1.55
2023-03-16T10:41:23.932Z,1.58
2023-03-16T10:43:55.785Z,1.70
2023-03-16T10:46:24.013Z,1.42
2023-03-16T10:49:02.426Z,1.67
2023-03-16T10:51:36.795Z,1.67
2023-03-16T10:54:16.656Z,1.60
2023-03-16T10:56:43.967Z,1.63
2023-03-16T10:59:16.062Z,1.38
2023-03-16T11:01:50.252Z,1.40
2023-03-16T11:04:19.690Z,1.23
2023-03-16T11:06:58.093Z,2.22
2023-03-16T11:09:37.307Z,1.33
2023-03-16T11:12:30.386Z,1.17
2023-03-16T11:15:23.634Z,1.40
2023-03-16T11:17:56.573Z,1.40
2023-03-16T11:20:31.944Z,1.85
2023-03-16T11:23:01.082Z,1.55
2023-03-16T11:25:38.727Z,1.45
2023-03-16T11:28:37.809Z,1.27
2023-03-16T11:31:34.122Z,1.00
2023-03-16T11:34:03.013Z,1.30
2023-03-16T11:36:52.014Z,1.05
2023-03-16T11:39:48.022Z,1.20
2023-03-16T11:42:42.794Z,1.65
2023-03-16T11:45:37.370Z,1.20
2023-03-16T11:48:21.587Z,1.73
2023-03-16T11:51:14.197Z,1.10
2023-03-16T11:54:12.232Z,1.10
2023-03-16T11:56:46.881Z,1.02
2023-03-16T11:59:48.936Z,1.42
2023-03-16T12:02:39.313Z,1.05
2023-03-16T12:05:46.237Z,1.38
2023-03-16T12:08:45.172Z,1.10
2023-03-16T12:11:40.944Z,0.77
2023-03-16T12:14:34.061Z,1.25
2023-03-16T12:17:08.661Z,1.00
2023-03-16T12:19:54.242Z,1.10
2023-03-16T12:22:28.564Z,1.38
2023-03-16T12:24:55.974Z,1.17
2023-03-16T12:27:33.657Z,1.10
2023-03-16T12:30:35.997Z,0.90
2023-03-16T12:33:28.440Z,0.98
2023-03-16T12:36:35.285Z,0.90
2023-03-16T12:39:12.292Z,1.27
2023-03-16T12:42:13.595Z,1.00
2023-03-16T12:45:08.529Z,1.33
2023-03-16T12:48:04.445Z,0.73
2023-03-16T12:50:31.997Z,1.08
2023-03-16T12:53:00.309Z,0.63
2023-03-16T12:55:44.549Z,0.63
2023-03-16T12:58:12.893Z,0.77
2023-03-16T13:00:42.777Z,0.90
2023-03-16T13:03:22.360Z,0.90
2023-03-16T13:05:59.603Z,1.35
2023-03-16T13:08:29.160Z,0.80
2023-03-16T13:11:09.786Z,0.82
2023-03-16T13:13:49.983Z,1.10
2023-03-16T13:18:57.315Z,0.85
2023-03-16T13:21:40.259Z,0.80
2023-03-16T13:24:28.986Z,0.80
2023-03-16T13:27:04.623Z,0.88
2023-03-16T13:29:32.985Z,1.10
2023-03-16T13:32:08.897Z,0.60
2023-03-16T13:34:47.266Z,0.60
2023-03-16T13:37:17.389Z,1.02
2023-03-16T13:42:21.043Z,0.85
2023-03-16T13:44:49.172Z,0.55
2023-03-16T13:47:20.212Z,0.55
2023-03-16T13:49:50.990Z,0.65
2023-03-16T13:52:26.558Z,0.90
2023-03-16T13:54:56.550Z,0.77
2023-03-16T13:57:28.475Z,0.60
2023-03-16T14:00:16.027Z,0.60
2023-03-16T14:02:44.231Z,1.20
2023-03-16T14:05:18.910Z,0.68
2023-03-16T14:07:48.829Z,1.05
2023-03-16T14:10:17.386Z,0.50
2023-03-16T14:12:58.938Z,1.02
2023-03-16T14:15:31.269Z,0.50
2023-03-16T14:18:21.589Z,0.60
2023-03-16T14:23:33.724Z,0.82
2023-03-16T14:26:05.727Z,0.70
2023-03-16T14:28:34.452Z,0.60
2023-03-16T14:31:11.937Z,0.68
2023-03-16T14:33:42.874Z,0.50
2023-03-16T14:36:17.751Z,0.85
2023-03-16T14:38:48.508Z,0.47
2023-03-16T14:41:26.503Z,0.60
2023-03-16T14:43:59.787Z,0.65
2023-03-16T14:46:30.930Z,0.63
2023-03-16T14:49:17.000Z,0.82
2023-03-16T14:51:45.823Z,0.55
2023-03-16T14:54:14.733Z,0.43
2023-03-16T14:56:43.826Z,0.63
2023-03-16T14:59:10.900Z,0.50
2023-03-16T15:01:38.807Z,0.80
2023-03-16T15:04:07.571Z,0.70
2023-03-16T15:06:35.222Z,0.52
2023-03-16T15:09:03.457Z,0.63
2023-03-16T15:11:31.949Z,0.60
2023-03-16T15:14:14.757Z,0.88
2023-03-16T15:16:44.994Z,0.32
2023-03-16T15:19:12.624Z,0.52
2023-03-16T15:21:40.260Z,0.50
2023-03-16T15:24:12.285Z,0.60
2023-03-16T15:26:39.369Z,1.17
2023-03-16T15:29:09.960Z,0.77
2023-03-16T15:31:37.225Z,0.80
2023-03-16T15:34:04.322Z,0.77
2023-03-16T15:36:32.113Z,1.02
2023-03-16T15:38:59.493Z,1.00
2023-03-16T15:41:32.433Z,0.55
2023-03-16T15:44:12.793Z,0.65
2023-03-16T15:46:40.001Z,0.60
2023-03-16T15:49:07.327Z,0.43
2023-03-16T15:51:35.074Z,0.90
2023-03-16T15:54:07.291Z,0.60
2023-03-16T15:56:50.976Z,0.70
2023-03-16T15:59:22.319Z,1.08
2023-03-16T16:01:52.553Z,0.60
2023-03-16T16:06:50.914Z,0.93
2023-03-16T16:09:18.124Z,0.90
2023-03-16T16:11:48.630Z,0.68
2023-03-16T16:14:18.296Z,0.68
2023-03-16T16:16:46.279Z,1.17
2023-03-16T16:19:17.113Z,0.75
2023-03-16T16:21:44.842Z,0.77
2023-03-16T16:24:12.053Z,0.70
2023-03-16T16:26:51.962Z,0.82
2023-03-16T16:29:24.202Z,0.70
2023-03-16T16:34:25.084Z,1.17
2023-03-16T16:36:54.214Z,1.23
2023-03-16T16:39:22.147Z,0.68
2023-03-16T16:41:51.433Z,1.10
2023-03-16T16:44:24.555Z,1.48
2023-03-16T16:46:53.893Z,0.73
2023-03-16T16:49:28.265Z,0.83
2023-03-16T16:51:55.618Z,1.10
2023-03-16T16:54:30.621Z,0.98
2023-03-16T16:56:59.829Z,0.82
2023-03-16T16:59:31.579Z,0.73
2023-03-16T17:02:00.426Z,1.00
2023-03-16T17:04:29.460Z,1.45
2023-03-16T17:07:02.222Z,0.60
2023-03-16T17:09:30.431Z,0.95
2023-03-16T17:12:01.923Z,0.57
2023-03-16T17:14:29.232Z,0.73
2023-03-16T17:16:57.143Z,0.77
2023-03-16T17:19:28.208Z,0.77
2023-03-16T17:21:57.692Z,0.70
2023-03-16T17:24:25.464Z,1.48
2023-03-16T17:26:56.210Z,0.75
2023-03-16T17:29:33.882Z,0.85
2023-03-16T17:32:04.654Z,0.60
2023-03-16T17:34:33.901Z,0.90
2023-03-16T17:37:02.344Z,0.90
2023-03-16T17:39:32.458Z,0.60
2023-03-16T17:42:06.275Z,0.85
2023-03-16T17:44:37.200Z,0.70
2023-03-16T17:47:11.667Z,0.75
2023-03-16T17:49:40.440Z,0.90
2023-03-16T17:52:18.532Z,1.27
2023-03-16T17:54:47.215Z,1.08
2023-03-16T17:57:18.084Z,0.45
2023-03-16T17:59:46.967Z,1.05
2023-03-16T18:02:54.034Z,1.30
2023-03-16T18:05:27.956Z,0.82
2023-03-16T18:07:58.183Z,0.82
2023-03-16T18:10:28.552Z,0.80
2023-03-16T18:13:03.815Z,0.90
2023-03-16T18:15:33.909Z,0.90
2023-03-16T18:18:01.801Z,1.00
2023-03-16T18:20:33.919Z,1.00
2023-03-16T18:23:02.998Z,1.63
2023-03-16T18:25:35.422Z,1.30
2023-03-16T18:28:02.910Z,1.33
2023-03-16T18:30:31.010Z,1.20
2023-03-16T18:32:59.627Z,1.90
2023-03-16T18:35:27.462Z,1.90
2023-03-16T18:37:55.482Z,2.00
2023-03-16T18:40:24.813Z,1.70
2023-03-16T18:42:54.463Z,2.00
2023-03-16T18:45:22.028Z,2.22
2023-03-16T18:47:55.796Z,1.95
2023-03-16T18:50:28.856Z,1.85
2023-03-16T18:52:57.511Z,2.15
2023-03-16T18:55:26.477Z,1.83
2023-03-16T18:57:56.616Z,2.38
2023-03-16T19:00:29.927Z,2.00
2023-03-16T19:03:05.115Z,2.42
2023-03-16T19:05:38.082Z,2.50
2023-03-16T19:08:06.449Z,2.83
2023-03-16T19:10:38.102Z,2.45
2023-03-16T19:13:17.155Z,2.58
2023-03-16T19:15:44.248Z,3.10
2023-03-16T19:18:11.831Z,3.05
2023-03-16T19:20:41.293Z,3.17
2023-03-16T19:23:24.898Z,2.97
2023-03-16T19:25:53.366Z,3.10
2023-03-16T19:28:36.840Z,3.55
2023-03-16T19:31:14.500Z,3.53
2023-03-16T19:33:41.865Z,3.65
2023-03-16T19:36:30.712Z,3.80
2023-03-16T19:38:58.733Z,4.57
2023-03-16T19:41:29.635Z,4.68
2023-03-16T19:44:00.632Z,4.78
2023-03-16T19:46:29.245Z,5.35
2023-03-16T19:48:57.297Z,4.97
2023-03-16T19:51:26.112Z,5.05
2023-03-16T19:53:53.199Z,4.95
2023-03-16T19:56:21.924Z,5.40
2023-03-16T19:58:53.703Z,5.68
2023-03-16T20:01:25.185Z,5.57
2023-03-16T20:03:53.505Z,6.38
2023-03-16T20:06:22.895Z,6.13
2023-03-16T20:08:51.727Z,6.55
2023-03-16T20:11:30.455Z,7.00
2023-03-16T20:13:58.341Z,6.53
2023-03-16T20:16:33.778Z,6.68
2023-03-16T20:19:06.845Z,7.78
2023-03-16T20:21:34.032Z,7.13
2023-03-16T20:24:01.702Z,7.65
2023-03-16T20:26:32.961Z,7.68
2023-03-16T20:29:03.964Z,8.18
2023-03-16T20:31:34.291Z,7.82
2023-03-16T20:34:01.773Z,7.88
2023-03-16T20:36:33.834Z,7.28
2023-03-16T20:39:00.999Z,7.90
2023-03-16T20:41:32.891Z,8.25
2023-03-16T20:44:02.241Z,8.00
2023-03-16T20:46:31.781Z,8.15
2023-03-16T20:49:00.833Z,8.73
2023-03-16T20:51:29.000Z,8.77
2023-03-16T20:53:56.356Z,8.55
2023-03-16T20:56:26.755Z,9.38
2023-03-16T21:01:24.745Z,9.10
2023-03-16T21:03:55.449Z,9.48
2023-03-16T21:06:30.322Z,10.32
2023-03-16T21:08:59.771Z,9.07
2023-03-16T21:11:38.830Z,8.33
2023-03-16T21:14:11.004Z,9.82
2023-03-16T21:16:38.860Z,10.07
2023-03-16T21:19:17.056Z,9.70
2023-03-16T21:21:44.278Z,10.30
2023-03-16T21:24:11.797Z,9.77
2023-03-16T21:26:40.376Z,10.75
2023-03-16T21:29:12.923Z,10.73
2023-03-16T21:31:40.166Z,9.88
2023-03-16T21:34:26.090Z,10.65
2023-03-16T21:36:53.376Z,11.32
2023-03-16T21:39:23.842Z,11.07
2023-03-16T21:44:18.664Z,11.23
2023-03-16T21:46:47.517Z,10.50
2023-03-16T21:49:15.962Z,10.63
2023-03-16T21:51:43.465Z,11.65
2023-03-16T21:54:19.358Z,10.38
2023-03-16T21:56:48.094Z,10.63
2023-03-16T21:59:15.675Z,11.25
2023-03-16T22:01:58.644Z,11.65
2023-03-16T22:04:28.522Z,11.52
2023-03-16T22:06:55.845Z,10.93
2023-03-16T22:09:25.053Z,11.52
2023-03-16T22:11:52.178Z,10.50
2023-03-16T22:14:19.247Z,11.05
2023-03-16T22:16:46.696Z,11.27
2023-03-16T22:19:14.859Z,10.77
2023-03-16T22:21:44.023Z,10.38
2023-03-16T22:24:21.145Z,11.70
2023-03-16T22:26:49.228Z,10.43
2023-03-16T22:29:26.888Z,10.38
2023-03-16T22:32:04.354Z,10.43
2023-03-16T22:34:44.225Z,10.75
2023-03-16T22:37:14.683Z,10.68
2023-03-16T22:42:32.971Z,10.65
2023-03-16T22:45:00.911Z,10.05
2023-03-16T22:47:32.685Z,10.43
2023-03-16T22:49:59.987Z,9.55
2023-03-16T22:52:31.031Z,10.13
2023-03-16T22:55:01.147Z,10.63
2023-03-16T22:57:29.457Z,10.23
2023-03-16T22:59:57.065Z,9.90
2023-03-16T23:02:26.915Z,10.30
2023-03-16T23:04:54.041Z,10.60
2023-03-16T23:07:21.219Z,9.52
2023-03-16T23:09:48.633Z,10.20
2023-03-16T23:12:20.678Z,9.52
2023-03-16T23:14:47.973Z,9.93
2023-03-16T23:17:20.461Z,9.90
2023-03-16T23:19:48.386Z,9.38
2023-03-16T23:22:15.572Z,8.88
2023-03-16T23:24:43.282Z,9.50
2023-03-16T23:27:19.563Z,9.55
2023-03-16T23:29:46.907Z,9.77
2023-03-16T23:32:17.024Z,8.63
2023-03-16T23:34:44.220Z,9.38
2023-03-16T23:37:11.849Z,9.57
2023-03-16T23:39:40.006Z,9.27
2023-03-16T23:42:07.327Z,9.07
2023-03-16T23:44:34.619Z,8.85
2023-03-16T23:47:02.302Z,9.30
2023-03-16T23:49:33.046Z,9.43
2023-03-16T23:52:01.898Z,9.45
2023-03-16T23:54:31.754Z,8.90
2023-03-16T23:56:59.114Z,8.82
2023-03-16T23:59:26.792Z,9.25
